Thunderstorms From: 15-12-2017 06:00 Until: 16-12-2017 06:00 warning for: Thunderstorms Level: Yellow info button

Although rather usual in this region, locally or potentially dangerous phenomena are expected. (such as local winds, summer thunderstorms, rising streams or high waves) Be aware and pay attention to the latest weather updates, especially if you carry out activities exposed to weather or close to a stream or shoreline. 


Meteo18 Weather Cam more information Meteo18 Weather Cam


warning for Thunderstorms more information blitzortung!


Rain radar more information rain snow radar


Visit our other weather sites:

Template documentation
and downloads

And another site



Weather Underground History page Text

Daily Summary for August 11, 2016 Units:  Metric    English   Both
« Previous Day
Next Day »
Daily Weekly Monthly Yearly Custom
  High: Low: Average:
Temperature: 22.3 °C 8.4 °C 16.2 °C
Dew Point: 11.2 °C 6.5 °C 8.3 °C
Humidity: 89 % 39 % 62 %
Wind Speed: 12.9 km/h 0.0 km/h 3 km/h
Wind Gust: 22.5 km/h - -
Wind:- - WSW
Pressure: 1026.3 hPa 1023.9 hPa -
Precipitation: 0.0 mm    
Historical Graphs
 
 
Tabular Data for August 11, 2016
Time Temperature Dew Point Pressure Wind Wind Speed Wind Gust Humidity Rainfall Rate (Hourly)
00:02 13.0 °C 7.0 °C 1024.9 hPa NW 4.8 km/h 8.0 km/h 67 % 0.0 mm
00:12 12.7 °C 6.9 °C 1024.9 hPa WNW 3.2 km/h 6.4 km/h 68 % 0.0 mm
00:17 12.7 °C 7.2 °C 1024.9 hPa NW 1.6 km/h 6.4 km/h 69 % 0.0 mm
00:22 12.6 °C 7.1 °C 1024.9 hPa NW 6.4 km/h 6.4 km/h 69 % 0.0 mm
00:27 12.6 °C 7.1 °C 1024.9 hPa NW 3.2 km/h 6.4 km/h 69 % 0.0 mm
00:32 12.5 °C 7.2 °C 1024.6 hPa NW 9.7 km/h 9.7 km/h 70 % 0.0 mm
00:37 12.5 °C 7.2 °C 1024.6 hPa WNW 1.6 km/h 9.7 km/h 70 % 0.0 mm
00:42 12.5 °C 7.2 °C 1024.9 hPa NW 1.6 km/h 9.7 km/h 70 % 0.0 mm
00:57 12.4 °C 7.3 °C 1024.9 hPa NNW 6.4 km/h 11.3 km/h 71 % 0.0 mm
01:02 12.4 °C 7.3 °C 1024.9 hPa NW 1.6 km/h 11.3 km/h 71 % 0.0 mm
01:12 12.3 °C 7.4 °C 1024.9 hPa Calm   9.7 km/h 72 % 0.0 mm
01:17 12.3 °C 7.4 °C 1024.9 hPa WNW 1.6 km/h 9.7 km/h 72 % 0.0 mm
01:22 12.2 °C 7.3 °C 1024.9 hPa WNW 1.6 km/h 6.4 km/h 72 % 0.0 mm
01:27 12.1 °C 7.2 °C 1024.9 hPa Calm   6.4 km/h 72 % 0.0 mm
01:37 11.7 °C 7.0 °C 1024.9 hPa SW 1.6 km/h 3.2 km/h 73 % 0.0 mm
01:42 11.7 °C 7.2 °C 1024.9 hPa WNW 1.6 km/h 3.2 km/h 74 % 0.0 mm
01:47 11.7 °C 7.2 °C 1024.9 hPa Calm   4.8 km/h 74 % 0.0 mm
01:52 11.7 °C 7.2 °C 1024.9 hPa Calm   4.8 km/h 74 % 0.0 mm
01:57 11.6 °C 7.1 °C 1024.9 hPa WNW 3.2 km/h 4.8 km/h 74 % 0.0 mm
02:02 11.4 °C 7.1 °C 1024.9 hPa WNW 3.2 km/h 4.8 km/h 75 % 0.0 mm
02:12 11.4 °C 7.3 °C 1024.9 hPa NW 4.8 km/h 4.8 km/h 76 % 0.0 mm
02:17 11.4 °C 7.3 °C 1024.9 hPa NW 1.6 km/h 4.8 km/h 76 % 0.0 mm
02:22 11.4 °C 7.3 °C 1024.9 hPa NW 3.2 km/h 4.8 km/h 76 % 0.0 mm
02:27 11.3 °C 7.2 °C 1024.9 hPa WNW 1.6 km/h 6.4 km/h 76 % 0.0 mm
02:32 11.2 °C 7.1 °C 1024.9 hPa NW 1.6 km/h 6.4 km/h 76 % 0.0 mm
02:37 11.2 °C 7.3 °C 1024.9 hPa NW 1.6 km/h 6.4 km/h 77 % 0.0 mm
02:42 11.2 °C 7.3 °C 1024.9 hPa WNW 1.6 km/h 6.4 km/h 77 % 0.0 mm
02:47 11.2 °C 7.3 °C 1024.9 hPa NW 3.2 km/h 6.4 km/h 77 % 0.0 mm
02:52 11.1 °C 7.2 °C 1024.9 hPa Calm   4.8 km/h 77 % 0.0 mm
02:57 11.1 °C 7.4 °C 1024.9 hPa NW 3.2 km/h 4.8 km/h 78 % 0.0 mm
03:02 11.0 °C 7.3 °C 1024.9 hPa NW 3.2 km/h 4.8 km/h 78 % 0.0 mm
03:07 10.9 °C 7.2 °C 1024.9 hPa NW 3.2 km/h 4.8 km/h 78 % 0.0 mm
03:12 10.9 °C 7.2 °C 1024.9 hPa Calm   4.8 km/h 78 % 0.0 mm
03:17 10.8 °C 7.1 °C 1024.9 hPa Calm   4.8 km/h 78 % 0.0 mm
03:27 10.6 °C 7.1 °C 1024.9 hPa Calm   4.8 km/h 79 % 0.0 mm
03:32 10.4 °C 6.9 °C 1024.9 hPa Calm   1.6 km/h 79 % 0.0 mm
03:37 10.3 °C 7.0 °C 1024.9 hPa WNW 1.6 km/h 3.2 km/h 80 % 0.0 mm
03:42 10.2 °C 6.7 °C 1024.9 hPa WNW 3.2 km/h 3.2 km/h 79 % 0.0 mm
03:52 10.3 °C 7.2 °C 1024.9 hPa WNW 3.2 km/h 4.8 km/h 81 % 0.0 mm
03:57 10.6 °C 7.5 °C 1024.9 hPa NW 1.6 km/h 6.4 km/h 81 % 0.0 mm
04:02 10.6 °C 7.3 °C 1024.9 hPa NW 3.2 km/h 6.4 km/h 80 % 0.0 mm
04:12 10.6 °C 7.5 °C 1024.9 hPa Calm   4.8 km/h 81 % 0.0 mm
04:17 10.5 °C 7.4 °C 1024.9 hPa WNW 3.2 km/h 4.8 km/h 81 % 0.0 mm
04:22 10.5 °C 7.4 °C 1024.9 hPa Calm   4.8 km/h 81 % 0.0 mm
04:27 10.5 °C 7.4 °C 1024.9 hPa Calm   4.8 km/h 81 % 0.0 mm
04:32 10.3 °C 7.0 °C 1024.9 hPa West 1.6 km/h 3.2 km/h 80 % 0.0 mm
04:42 9.8 °C 6.9 °C 1024.9 hPa Calm   1.6 km/h 82 % 0.0 mm
04:47 9.6 °C 6.9 °C 1024.9 hPa WNW 1.6 km/h 1.6 km/h 83 % 0.0 mm
04:52 9.4 °C 6.8 °C 1024.9 hPa Calm   1.6 km/h 84 % 0.0 mm
04:57 9.3 °C 6.9 °C 1024.9 hPa Calm   1.6 km/h 85 % 0.0 mm
05:02 9.3 °C 7.1 °C 1024.9 hPa WNW 1.6 km/h 1.6 km/h 86 % 0.0 mm
05:07 9.3 °C 6.9 °C 1024.9 hPa WNW 1.6 km/h 1.6 km/h 85 % 0.0 mm
05:12 9.2 °C 6.8 °C 1024.9 hPa Calm   1.6 km/h 85 % 0.0 mm
05:22 9.2 °C 7.0 °C 1024.9 hPa Calm   1.6 km/h 86 % 0.0 mm
05:27 9.1 °C 6.9 °C 1025.3 hPa Calm   1.6 km/h 86 % 0.0 mm
05:32 9.2 °C 7.0 °C 1025.3 hPa NW 1.6 km/h 1.6 km/h 86 % 0.0 mm
05:42 9.3 °C 7.1 °C 1024.9 hPa Calm   3.2 km/h 86 % 0.0 mm
05:47 9.4 °C 7.0 °C 1025.3 hPa Calm   3.2 km/h 85 % 0.0 mm
05:52 9.3 °C 6.9 °C 1024.9 hPa Calm   3.2 km/h 85 % 0.0 mm
05:57 9.3 °C 6.9 °C 1025.3 hPa NNE 3.2 km/h 3.2 km/h 85 % 0.0 mm
06:02 9.3 °C 7.1 °C 1025.3 hPa Calm   3.2 km/h 86 % 0.0 mm
06:07 9.2 °C 6.8 °C 1025.3 hPa Calm   3.2 km/h 85 % 0.0 mm
06:12 9.2 °C 7.0 °C 1025.3 hPa NNW 1.6 km/h 3.2 km/h 86 % 0.0 mm
06:17 9.3 °C 7.1 °C 1025.3 hPa Calm   3.2 km/h 86 % 0.0 mm
06:22 9.3 °C 7.1 °C 1025.3 hPa Calm   3.2 km/h 86 % 0.0 mm
06:32 9.1 °C 6.9 °C 1025.3 hPa Calm   3.2 km/h 86 % 0.0 mm
06:37 8.9 °C 6.7 °C 1025.3 hPa Calm   1.6 km/h 86 % 0.0 mm
06:52 8.7 °C 6.5 °C 1025.6 hPa Calm     86 % 0.0 mm
07:02 8.8 °C 6.8 °C 1025.6 hPa Calm     87 % 0.0 mm
07:07 8.6 °C 6.6 °C 1025.6 hPa Calm     87 % 0.0 mm
07:12 8.4 °C 6.5 °C 1025.6 hPa Calm     88 % 0.0 mm
07:17 8.4 °C 6.7 °C 1025.6 hPa Calm     89 % 0.0 mm
07:22 8.6 °C 6.9 °C 1026.0 hPa Calm     89 % 0.0 mm
07:27 8.6 °C 6.9 °C 1026.0 hPa Calm   1.6 km/h 89 % 0.0 mm
07:32 8.7 °C 6.8 °C 1026.0 hPa West 1.6 km/h 1.6 km/h 88 % 0.0 mm
07:37 8.8 °C 7.1 °C 1026.0 hPa WNW 1.6 km/h 3.2 km/h 89 % 0.0 mm
07:42 9.1 °C 7.2 °C 1026.0 hPa Calm   3.2 km/h 88 % 0.0 mm
07:47 9.4 °C 7.3 °C 1026.0 hPa Calm   1.6 km/h 87 % 0.0 mm
07:52 9.8 °C 7.7 °C 1026.0 hPa Calm   1.6 km/h 87 % 0.0 mm
07:57 10.2 °C 8.0 °C 1026.0 hPa Calm   1.6 km/h 86 % 0.0 mm
08:02 10.4 °C 8.0 °C 1026.0 hPa WNW 1.6 km/h 1.6 km/h 85 % 0.0 mm
08:12 10.9 °C 8.3 °C 1026.0 hPa Calm   1.6 km/h 84 % 0.0 mm
08:17 11.1 °C 8.1 °C 1026.0 hPa Calm   1.6 km/h 82 % 0.0 mm
08:22 11.3 °C 8.3 °C 1026.0 hPa WNW 1.6 km/h 1.6 km/h 82 % 0.0 mm
08:27 11.6 °C 8.5 °C 1026.0 hPa Calm   1.6 km/h 81 % 0.0 mm
08:32 12.1 °C 8.8 °C 1026.0 hPa Calm   1.6 km/h 80 % 0.0 mm
08:42 12.9 °C 9.0 °C 1026.0 hPa Calm   1.6 km/h 77 % 0.0 mm
08:47 13.1 °C 9.0 °C 1026.3 hPa NE 3.2 km/h 3.2 km/h 76 % 0.0 mm
08:52 13.1 °C 8.8 °C 1026.3 hPa NNE 3.2 km/h 3.2 km/h 75 % 0.0 mm
08:57 13.2 °C 8.9 °C 1026.3 hPa NE 1.6 km/h 4.8 km/h 75 % 0.0 mm
09:02 13.7 °C 9.1 °C 1026.3 hPa East 1.6 km/h 4.8 km/h 74 % 0.0 mm
09:07 14.1 °C 9.3 °C 1026.3 hPa ENE 1.6 km/h 4.8 km/h 73 % 0.0 mm
09:12 14.2 °C 9.2 °C 1026.3 hPa NNE 1.6 km/h 4.8 km/h 72 % 0.0 mm
09:22 14.7 °C 9.5 °C 1026.3 hPa NNW 1.6 km/h 4.8 km/h 71 % 0.0 mm
09:37 15.2 °C 9.1 °C 1026.3 hPa Calm   3.2 km/h 67 % 0.0 mm
09:42 15.5 °C 8.9 °C 1026.3 hPa Calm   3.2 km/h 65 % 0.0 mm
09:47 15.5 °C 8.7 °C 1026.3 hPa ENE 4.8 km/h 4.8 km/h 64 % 0.0 mm
09:52 15.2 °C 8.4 °C 1026.3 hPa Calm   4.8 km/h 64 % 0.0 mm
09:57 15.4 °C 8.6 °C 1026.3 hPa Calm   6.4 km/h 64 % 0.0 mm
10:02 15.9 °C 8.6 °C 1026.3 hPa NNW 1.6 km/h 6.4 km/h 62 % 0.0 mm
10:12 15.8 °C 8.3 °C 1026.3 hPa NE 1.6 km/h 8.0 km/h 61 % 0.0 mm
10:17 15.8 °C 8.5 °C 1026.3 hPa Calm   8.0 km/h 62 % 0.0 mm
10:22 16.1 °C 8.6 °C 1026.3 hPa Calm   8.0 km/h 61 % 0.0 mm
10:32 16.2 °C 8.4 °C 1026.3 hPa North 4.8 km/h 8.0 km/h 60 % 0.0 mm
10:37 16.4 °C 9.1 °C 1026.3 hPa NNE 3.2 km/h 8.0 km/h 62 % 0.0 mm
10:42 16.4 °C 8.4 °C 1026.3 hPa Calm   8.0 km/h 59 % 0.0 mm
10:47 16.6 °C 8.8 °C 1026.3 hPa Calm   11.3 km/h 60 % 0.0 mm
10:57 16.8 °C 8.2 °C 1026.3 hPa WNW 1.6 km/h 11.3 km/h 57 % 0.0 mm
11:02 17.3 °C 8.7 °C 1026.3 hPa NW 1.6 km/h 11.3 km/h 57 % 0.0 mm
11:12 17.2 °C 7.5 °C 1026.3 hPa WNW 4.8 km/h 12.9 km/h 53 % 0.0 mm
11:17 17.4 °C 7.2 °C 1026.3 hPa North 4.8 km/h 12.9 km/h 51 % 0.0 mm
11:22 17.3 °C 7.3 °C 1026.0 hPa NE 1.6 km/h 12.9 km/h 52 % 0.0 mm
11:32 17.3 °C 7.3 °C 1026.3 hPa NNE 1.6 km/h 14.5 km/h 52 % 0.0 mm
11:42 17.6 °C 7.1 °C 1026.0 hPa West 6.4 km/h 14.5 km/h 50 % 0.0 mm
11:47 17.6 °C 7.6 °C 1026.0 hPa NE 3.2 km/h 12.9 km/h 52 % 0.0 mm
11:52 17.9 °C 7.3 °C 1026.0 hPa North 3.2 km/h 12.9 km/h 50 % 0.0 mm
11:57 18.0 °C 7.4 °C 1026.0 hPa NW 6.4 km/h 12.9 km/h 50 % 0.0 mm
12:02 17.9 °C 7.6 °C 1026.0 hPa Calm   11.3 km/h 51 % 0.0 mm
12:12 18.4 °C 7.8 °C 1026.0 hPa West 1.6 km/h 12.9 km/h 50 % 0.0 mm
12:17 18.4 °C 7.2 °C 1025.6 hPa West 4.8 km/h 12.9 km/h 48 % 0.0 mm
12:22 18.2 °C 7.6 °C 1025.6 hPa East 3.2 km/h 12.9 km/h 50 % 0.0 mm
12:27 18.4 °C 7.8 °C 1025.6 hPa Calm   9.7 km/h 50 % 0.0 mm
12:32 18.8 °C 7.6 °C 1025.6 hPa West 11.3 km/h 11.3 km/h 48 % 0.0 mm
12:42 19.2 °C 7.3 °C 1025.6 hPa Calm   14.5 km/h 46 % 0.0 mm
12:52 19.6 °C 7.7 °C 1025.6 hPa WSW 4.8 km/h 11.3 km/h 46 % 0.0 mm
12:57 19.5 °C 8.2 °C 1025.3 hPa SSE 1.6 km/h 14.5 km/h 48 % 0.0 mm
13:02 19.7 °C 7.4 °C 1025.3 hPa Calm   14.5 km/h 45 % 0.0 mm
13:07 19.8 °C 7.8 °C 1025.3 hPa ENE 9.7 km/h 14.5 km/h 46 % 0.0 mm
13:12 20.0 °C 8.3 °C 1025.3 hPa ENE 3.2 km/h 9.7 km/h 47 % 0.0 mm
13:17 20.6 °C 8.2 °C 1025.3 hPa WNW 6.4 km/h 9.7 km/h 45 % 0.0 mm
13:22 20.0 °C 7.7 °C 1025.3 hPa West 4.8 km/h 11.3 km/h 45 % 0.0 mm
13:27 20.2 °C 7.9 °C 1025.3 hPa WNW 4.8 km/h 12.9 km/h 45 % 0.0 mm
13:32 20.3 °C 8.0 °C 1025.3 hPa SSW 1.6 km/h 12.9 km/h 45 % 0.0 mm
13:37 20.4 °C 7.7 °C 1025.3 hPa West 9.7 km/h 11.3 km/h 44 % 0.0 mm
13:42 19.9 °C 7.6 °C 1025.3 hPa NE 4.8 km/h 17.7 km/h 45 % 0.0 mm
13:47 19.8 °C 7.2 °C 1025.3 hPa West 8.0 km/h 17.7 km/h 44 % 0.0 mm
13:52 20.2 °C 7.6 °C 1025.3 hPa Calm   17.7 km/h 44 % 0.0 mm
13:57 20.2 °C 7.2 °C 1025.3 hPa West 9.7 km/h 17.7 km/h 43 % 0.0 mm
14:02 19.9 °C 7.6 °C 1025.3 hPa West 1.6 km/h 17.7 km/h 45 % 0.0 mm
14:07 20.2 °C 7.9 °C 1025.3 hPa West 1.6 km/h 17.7 km/h 45 % 0.0 mm
14:12 20.6 °C 7.9 °C 1025.3 hPa WNW 8.0 km/h 17.7 km/h 44 % 0.0 mm
14:17 20.5 °C 7.8 °C 1025.3 hPa WSW 8.0 km/h 16.1 km/h 44 % 0.0 mm
14:22 20.1 °C 7.8 °C 1024.9 hPa SW 4.8 km/h 16.1 km/h 45 % 0.0 mm
14:27 20.2 °C 7.9 °C 1024.9 hPa WNW 4.8 km/h 16.1 km/h 45 % 0.0 mm
14:32 20.2 °C 7.9 °C 1024.9 hPa WNW 9.7 km/h 12.9 km/h 45 % 0.0 mm
14:42 20.4 °C 8.1 °C 1024.9 hPa WNW 4.8 km/h 14.5 km/h 45 % 0.0 mm
14:47 20.3 °C 7.6 °C 1024.9 hPa West 1.6 km/h 17.7 km/h 44 % 0.0 mm
14:52 20.5 °C 7.8 °C 1024.9 hPa WSW 6.4 km/h 17.7 km/h 44 % 0.0 mm
14:57 20.6 °C 7.6 °C 1024.9 hPa SSW 6.4 km/h 17.7 km/h 43 % 0.0 mm
15:02 20.7 °C 8.0 °C 1024.9 hPa NNW 8.0 km/h 14.5 km/h 44 % 0.0 mm
15:12 20.7 °C 8.0 °C 1024.6 hPa West 4.8 km/h 14.5 km/h 44 % 0.0 mm
15:17 20.7 °C 8.0 °C 1024.6 hPa SSW 3.2 km/h 14.5 km/h 44 % 0.0 mm
15:22 21.1 °C 8.0 °C 1024.6 hPa South 8.0 km/h 14.5 km/h 43 % 0.0 mm
15:27 21.3 °C 8.2 °C 1024.6 hPa South 4.8 km/h 16.1 km/h 43 % 0.0 mm
15:32 21.1 °C 8.0 °C 1024.9 hPa SW 6.4 km/h 16.1 km/h 43 % 0.0 mm
15:37 21.4 °C 8.3 °C 1024.6 hPa West 9.7 km/h 16.1 km/h 43 % 0.0 mm
15:42 21.3 °C 7.9 °C 1024.6 hPa West 9.7 km/h 14.5 km/h 42 % 0.0 mm
15:47 21.1 °C 7.3 °C 1024.6 hPa Calm   17.7 km/h 41 % 0.0 mm
15:52 21.2 °C 8.1 °C 1024.6 hPa NNW 3.2 km/h 19.3 km/h 43 % 0.0 mm
15:57 21.2 °C 7.8 °C 1024.9 hPa WNW 6.4 km/h 19.3 km/h 42 % 0.0 mm
16:02 21.4 °C 8.0 °C 1024.6 hPa WSW 12.9 km/h 19.3 km/h 42 % 0.0 mm
16:12 21.3 °C 7.5 °C 1024.6 hPa SW 12.9 km/h 16.1 km/h 41 % 0.0 mm
16:17 21.1 °C 7.7 °C 1024.6 hPa WSW 1.6 km/h 16.1 km/h 42 % 0.0 mm
16:22 21.4 °C 8.0 °C 1024.6 hPa WSW 8.0 km/h 16.1 km/h 42 % 0.0 mm
16:27 21.2 °C 6.7 °C 1024.6 hPa West 4.8 km/h 17.7 km/h 39 % 0.0 mm
16:32 21.4 °C 7.6 °C 1024.6 hPa West 8.0 km/h 17.7 km/h 41 % 0.0 mm
16:42 21.5 °C 7.7 °C 1024.6 hPa WSW 8.0 km/h 20.9 km/h 41 % 0.0 mm
16:47 21.6 °C 8.1 °C 1024.6 hPa West 4.8 km/h 20.9 km/h 42 % 0.0 mm
16:52 21.7 °C 8.2 °C 1024.6 hPa WSW 8.0 km/h 17.7 km/h 42 % 0.0 mm
17:02 21.7 °C 8.2 °C 1024.6 hPa NNE 3.2 km/h 16.1 km/h 42 % 0.0 mm
17:07 21.8 °C 8.7 °C 1024.6 hPa NNW 4.8 km/h 14.5 km/h 43 % 0.0 mm
17:12 21.7 °C 8.2 °C 1024.6 hPa West 9.7 km/h 16.1 km/h 42 % 0.0 mm
17:17 21.5 °C 8.4 °C 1024.6 hPa SW 4.8 km/h 16.1 km/h 43 % 0.0 mm
17:22 21.6 °C 8.5 °C 1024.3 hPa SSW 4.8 km/h 16.1 km/h 43 % 0.0 mm
17:27 21.7 °C 8.6 °C 1024.3 hPa West 6.4 km/h 17.7 km/h 43 % 0.0 mm
17:32 21.4 °C 8.3 °C 1024.3 hPa Calm   17.7 km/h 43 % 0.0 mm
17:42 22.0 °C 8.8 °C 1024.3 hPa NW 1.6 km/h 16.1 km/h 43 % 0.0 mm
17:47 21.9 °C 8.8 °C 1024.3 hPa WNW 6.4 km/h 16.1 km/h 43 % 0.0 mm
17:52 22.0 °C 8.8 °C 1024.3 hPa WNW 8.0 km/h 19.3 km/h 43 % 0.0 mm
17:57 21.8 °C 8.7 °C 1024.3 hPa NW 11.3 km/h 19.3 km/h 43 % 0.0 mm
18:02 21.7 °C 8.9 °C 1024.3 hPa WNW 8.0 km/h 19.3 km/h 44 % 0.0 mm
18:17 21.9 °C 9.4 °C 1024.3 hPa WNW 6.4 km/h 14.5 km/h 45 % 0.0 mm
18:22 21.9 °C 9.4 °C 1024.3 hPa WNW 9.7 km/h 14.5 km/h 45 % 0.0 mm
18:27 22.0 °C 9.5 °C 1024.3 hPa WNW 9.7 km/h 17.7 km/h 45 % 0.0 mm
18:32 22.0 °C 9.5 °C 1023.9 hPa WNW 3.2 km/h 17.7 km/h 45 % 0.0 mm
18:37 22.2 °C 9.7 °C 1023.9 hPa West 1.6 km/h 12.9 km/h 45 % 0.0 mm
18:42 22.2 °C 9.7 °C 1023.9 hPa West 6.4 km/h 20.9 km/h 45 % 0.0 mm
18:47 22.2 °C 9.7 °C 1023.9 hPa ENE 1.6 km/h 20.9 km/h 45 % 0.0 mm
18:52 22.1 °C 9.6 °C 1023.9 hPa Calm   20.9 km/h 45 % 0.0 mm
18:57 22.1 °C 9.6 °C 1024.3 hPa NW 6.4 km/h 17.7 km/h 45 % 0.0 mm
19:02 22.1 °C 9.6 °C 1024.3 hPa West 8.0 km/h 17.7 km/h 45 % 0.0 mm
19:07 22.2 °C 9.7 °C 1024.3 hPa West 3.2 km/h 17.7 km/h 45 % 0.0 mm
19:12 22.3 °C 9.8 °C 1024.3 hPa NNW 6.4 km/h 22.5 km/h 45 % 0.0 mm
19:17 22.2 °C 9.7 °C 1024.3 hPa NW 6.4 km/h 22.5 km/h 45 % 0.0 mm
19:22 22.1 °C 9.6 °C 1024.3 hPa West 9.7 km/h 22.5 km/h 45 % 0.0 mm
19:27 21.8 °C 9.7 °C 1024.3 hPa WNW 3.2 km/h 17.7 km/h 46 % 0.0 mm
19:32 21.7 °C 9.6 °C 1024.3 hPa West 4.8 km/h 17.7 km/h 46 % 0.0 mm
19:42 21.4 °C 9.9 °C 1024.3 hPa WNW 4.8 km/h 17.7 km/h 48 % 0.0 mm
19:47 21.6 °C 10.1 °C 1024.3 hPa WNW 6.4 km/h 17.7 km/h 48 % 0.0 mm
19:52 21.7 °C 10.2 °C 1024.3 hPa NNW 6.4 km/h 17.7 km/h 48 % 0.0 mm
20:02 21.6 °C 10.1 °C 1024.3 hPa WNW 4.8 km/h 17.7 km/h 48 % 0.0 mm
20:07 21.6 °C 10.1 °C 1024.3 hPa WNW 3.2 km/h 17.7 km/h 48 % 0.0 mm
20:12 21.3 °C 9.8 °C 1024.3 hPa West 1.6 km/h 14.5 km/h 48 % 0.0 mm
20:17 21.3 °C 10.2 °C 1023.9 hPa West 1.6 km/h 11.3 km/h 49 % 0.0 mm
20:22 21.3 °C 10.2 °C 1023.9 hPa WNW 3.2 km/h 11.3 km/h 49 % 0.0 mm
20:27 21.1 °C 10.3 °C 1024.3 hPa WNW 8.0 km/h 14.5 km/h 50 % 0.0 mm
20:32 21.1 °C 10.3 °C 1024.3 hPa Calm   14.5 km/h 50 % 0.0 mm
20:42 20.8 °C 10.3 °C 1024.3 hPa NW 6.4 km/h 12.9 km/h 51 % 0.0 mm
20:47 20.6 °C 10.4 °C 1024.3 hPa West 4.8 km/h 12.9 km/h 52 % 0.0 mm
20:52 20.4 °C 10.5 °C 1024.3 hPa WNW 4.8 km/h 12.9 km/h 53 % 0.0 mm
20:57 20.3 °C 10.4 °C 1024.3 hPa WNW 6.4 km/h 8.0 km/h 53 % 0.0 mm
21:02 20.2 °C 10.6 °C 1024.3 hPa WNW 6.4 km/h 9.7 km/h 54 % 0.0 mm
21:07 20.0 °C 10.7 °C 1024.3 hPa WNW 3.2 km/h 9.7 km/h 55 % 0.0 mm
21:12 19.9 °C 10.6 °C 1024.3 hPa West 3.2 km/h 9.7 km/h 55 % 0.0 mm
21:22 19.6 °C 10.6 °C 1024.3 hPa NW 4.8 km/h 9.7 km/h 56 % 0.0 mm
21:27 19.5 °C 10.8 °C 1024.3 hPa West 1.6 km/h 9.7 km/h 57 % 0.0 mm
21:32 19.3 °C 10.6 °C 1024.6 hPa Calm   9.7 km/h 57 % 0.0 mm
21:37 19.2 °C 10.7 °C 1024.6 hPa Calm   6.4 km/h 58 % 0.0 mm
21:42 19.0 °C 10.8 °C 1024.6 hPa WSW 1.6 km/h 4.8 km/h 59 % 0.0 mm
21:47 18.9 °C 10.7 °C 1024.6 hPa Calm   3.2 km/h 59 % 0.0 mm
21:52 18.7 °C 10.8 °C 1024.6 hPa Calm   3.2 km/h 60 % 0.0 mm
21:57 18.6 °C 10.9 °C 1024.6 hPa West 1.6 km/h 3.2 km/h 61 % 0.0 mm
22:02 18.5 °C 10.8 °C 1024.6 hPa Calm   3.2 km/h 61 % 0.0 mm
22:12 18.2 °C 10.8 °C 1024.9 hPa West 1.6 km/h 3.2 km/h 62 % 0.0 mm
22:17 18.1 °C 10.9 °C 1024.9 hPa Calm   3.2 km/h 63 % 0.0 mm
22:22 18.1 °C 10.9 °C 1024.9 hPa Calm   3.2 km/h 63 % 0.0 mm
22:32 17.8 °C 10.9 °C 1024.9 hPa West 3.2 km/h 3.2 km/h 64 % 0.0 mm
22:42 17.4 °C 10.5 °C 1024.9 hPa Calm   3.2 km/h 64 % 0.0 mm
22:47 17.3 °C 10.7 °C 1024.9 hPa Calm   3.2 km/h 65 % 0.0 mm
23:02 16.8 °C 10.9 °C 1024.9 hPa Calm     68 % 0.0 mm
23:12 16.8 °C 11.1 °C 1025.3 hPa Calm     69 % 0.0 mm
23:17 16.7 °C 11.2 °C 1025.3 hPa Calm     70 % 0.0 mm
23:22 16.7 °C 11.2 °C 1024.9 hPa WSW 1.6 km/h   70 % 0.0 mm
23:32 16.7 °C 11.0 °C 1024.9 hPa Calm   3.2 km/h 69 % 0.0 mm
23:37 16.3 °C 10.8 °C 1024.9 hPa Calm   3.2 km/h 70 % 0.0 mm
23:42 16.4 °C 10.9 °C 1024.9 hPa Calm   3.2 km/h 70 % 0.0 mm
23:47 16.2 °C 10.7 °C 1024.9 hPa Calm   3.2 km/h 70 % 0.0 mm
23:52 15.9 °C 10.6 °C 1024.9 hPa Calm   3.2 km/h 71 % 0.0 mm
23:57 15.7 °C 10.7 °C 1024.9 hPa Calm   1.6 km/h 72 % 0.0 mm
Meteo18
Compliments of Weather Underground - 4 mb

Script developed by  Jim McMurry - jmcmurry@mwt.net Adapted for the template by  Wim van der Kuil - Leuven-Template.eu

You find our weather info also at:

European Weather Network

Weather Underground

Equipment we use:

Weather-station
Davis Vue

Weather-program
Meteohub

Weather-server
Raspberry PI 2 B+

Provider
1 and 1

Davis Vue

Meteohub

Raspberry PI 2 B+

1 and 1